createdAt,value
2023-04-05T00:02:00.493Z,3.40
2023-04-05T00:07:08.221Z,4.50
2023-04-05T00:12:12.062Z,5.00
2023-04-05T00:17:15.373Z,4.67
2023-04-05T00:22:20.221Z,4.20
2023-04-05T00:27:23.319Z,4.53
2023-04-05T00:32:26.441Z,3.87
2023-04-05T00:37:30.930Z,3.70
2023-04-05T00:42:34.007Z,3.37
2023-04-05T00:47:37.666Z,4.87
2023-04-05T00:52:42.815Z,5.57
2023-04-05T00:57:46.335Z,4.67
2023-04-05T01:02:53.820Z,4.30
2023-04-05T01:08:06.964Z,4.60
2023-04-05T01:13:10.086Z,5.03
2023-04-05T01:18:13.994Z,4.70
2023-04-05T01:23:37.673Z,4.57
2023-04-05T01:29:05.256Z,3.30
2023-04-05T01:34:18.268Z,4.50
2023-04-05T01:39:22.411Z,4.30
2023-04-05T01:44:25.524Z,4.47
2023-04-05T01:49:30.054Z,4.23
2023-04-05T01:54:33.181Z,3.40
2023-04-05T01:59:36.370Z,3.87
2023-04-05T02:04:40.886Z,4.30
2023-04-05T02:09:44.005Z,4.30
2023-04-05T02:14:47.191Z,2.90
2023-04-05T02:19:53.113Z,3.87
2023-04-05T02:24:56.448Z,3.47
2023-04-05T02:29:59.557Z,4.13
2023-04-05T02:35:04.195Z,4.17
2023-04-05T02:40:09.751Z,4.10
2023-04-05T02:45:13.017Z,3.90
2023-04-05T02:50:20.579Z,3.83
2023-04-05T02:55:23.719Z,3.37
2023-04-05T03:00:27.976Z,3.90
2023-04-05T03:05:32.650Z,3.00
2023-04-05T03:10:39.410Z,3.47
2023-04-05T03:15:42.804Z,3.40
2023-04-05T03:20:50.024Z,2.80
2023-04-05T03:25:55.483Z,2.87
2023-04-05T03:30:58.603Z,3.67
2023-04-05T03:36:03.127Z,3.67
2023-04-05T03:41:06.979Z,4.10
2023-04-05T03:46:10.180Z,3.80
2023-04-05T03:51:14.682Z,3.47
2023-04-05T03:56:17.966Z,3.90
2023-04-05T04:01:21.458Z,3.40
2023-04-05T04:06:26.814Z,3.07
2023-04-05T04:11:29.991Z,3.30
2023-04-05T04:16:33.178Z,3.10
2023-04-05T04:21:43.233Z,2.80
2023-04-05T04:26:47.522Z,3.83
2023-04-05T04:31:50.740Z,3.20
2023-04-05T04:37:01.371Z,3.07
2023-04-05T04:42:05.182Z,3.67
2023-04-05T04:47:14.866Z,3.40
2023-04-05T04:52:19.523Z,3.13
2023-04-05T04:57:22.607Z,3.47
2023-04-05T05:02:26.002Z,3.70
2023-04-05T05:07:30.606Z,2.80
2023-04-05T05:12:33.715Z,4.07
2023-04-05T05:17:37.562Z,4.13
2023-04-05T05:22:42.513Z,3.63
2023-04-05T05:27:45.610Z,4.20
2023-04-05T05:32:48.747Z,4.50
2023-04-05T05:37:53.701Z,4.27
2023-04-05T05:42:56.812Z,3.93
2023-04-05T05:47:59.955Z,4.50
2023-04-05T05:53:04.520Z,5.17
2023-04-05T05:58:07.764Z,4.83
2023-04-05T06:03:11.057Z,7.03
2023-04-05T06:08:15.609Z,5.53
2023-04-05T06:13:18.911Z,4.17
2023-04-05T06:18:22.089Z,4.13
2023-04-05T06:23:26.617Z,4.13
2023-04-05T06:28:29.812Z,3.60
2023-04-05T06:33:32.902Z,3.97
2023-04-05T06:38:37.718Z,4.30
2023-04-05T06:43:41.015Z,3.77
2023-04-05T06:48:44.636Z,3.40
2023-04-05T06:53:49.131Z,3.60
2023-04-05T06:58:52.321Z,3.87
2023-04-05T07:03:55.739Z,3.23
2023-04-05T07:09:00.579Z,3.00
2023-04-05T07:14:03.882Z,2.83
2023-04-05T07:19:07.337Z,3.00
2023-04-05T07:24:11.834Z,3.03
2023-04-05T07:29:14.993Z,2.70
2023-04-05T07:34:18.122Z,2.77
2023-04-05T07:39:22.800Z,2.80
2023-04-05T07:44:26.081Z,2.77
2023-04-05T07:49:30.418Z,2.83
2023-04-05T07:54:34.974Z,2.30
2023-04-05T07:59:38.219Z,2.57
2023-04-05T08:04:41.394Z,2.90
2023-04-05T08:09:45.917Z,2.53
2023-04-05T08:14:49.044Z,2.50
2023-04-05T08:19:53.294Z,2.53
2023-04-05T08:24:57.852Z,2.63
2023-04-05T08:30:01.153Z,2.77
2023-04-05T08:35:04.656Z,2.50
2023-04-05T08:40:11.037Z,2.87
2023-04-05T08:45:16.469Z,2.77
2023-04-05T08:50:19.671Z,2.93
2023-04-05T08:55:24.735Z,3.07
2023-04-05T09:00:29.072Z,2.50
2023-04-05T09:05:33.359Z,2.90
2023-04-05T09:10:37.889Z,2.67
2023-04-05T09:15:42.160Z,2.60
2023-04-05T09:20:45.391Z,2.70
2023-04-05T09:25:52.763Z,2.80
2023-04-05T09:30:55.941Z,2.80
2023-04-05T09:35:59.072Z,2.77
2023-04-05T09:41:10.828Z,2.77
2023-04-05T09:46:34.241Z,2.80
2023-04-05T09:51:38.699Z,3.13
2023-04-05T09:56:56.972Z,2.93
2023-04-05T10:02:00.113Z,3.10
2023-04-05T10:07:03.473Z,2.70
2023-04-05T10:12:08.926Z,3.10
2023-04-05T10:17:17.050Z,2.80
2023-04-05T10:22:29.634Z,3.07
2023-04-05T10:27:40.298Z,2.90
2023-04-05T10:33:03.379Z,3.20
2023-04-05T10:38:18.565Z,2.90
2023-04-05T10:43:26.745Z,2.70
2023-04-05T10:48:38.318Z,2.93
2023-04-05T10:53:42.665Z,2.80
2023-04-05T10:58:48.602Z,3.20
2023-04-05T11:03:54.409Z,3.03
2023-04-05T11:09:01.519Z,3.00
2023-04-05T11:14:19.346Z,3.00
2023-04-05T11:19:42.683Z,3.20
2023-04-05T11:24:56.485Z,2.90
2023-04-05T11:30:02.170Z,3.10
2023-04-05T11:35:08.105Z,3.30
2023-04-05T11:40:28.079Z,3.20
2023-04-05T11:45:33.971Z,3.07
2023-04-05T11:50:38.287Z,3.07
2023-04-05T11:55:43.129Z,3.10
2023-04-05T12:00:48.646Z,3.00
2023-04-05T12:05:52.483Z,3.03
2023-04-05T12:10:56.982Z,2.87
2023-04-05T12:16:02.255Z,3.23
2023-04-05T12:21:07.884Z,3.33
2023-04-05T12:26:11.406Z,3.10
2023-04-05T12:31:15.964Z,3.20
2023-04-05T12:36:19.570Z,2.90
2023-04-05T12:41:29.794Z,3.17
2023-04-05T12:46:44.181Z,2.80
2023-04-05T12:51:48.379Z,3.03
2023-04-05T12:56:52.976Z,2.97
2023-04-05T13:01:57.509Z,3.23
2023-04-05T13:07:00.603Z,3.17
2023-04-05T13:12:03.735Z,3.00
2023-04-05T13:17:08.278Z,3.10
2023-04-05T13:22:11.582Z,3.20
2023-04-05T13:27:14.897Z,3.30
2023-04-05T13:32:19.358Z,3.13
2023-04-05T13:37:22.435Z,3.10
2023-04-05T13:42:25.703Z,2.60
2023-04-05T13:47:30.218Z,2.60
2023-04-05T13:52:33.344Z,2.57
2023-04-05T13:57:36.427Z,3.20
2023-04-05T14:02:42.279Z,2.90
2023-04-05T14:07:45.600Z,2.90
2023-04-05T14:12:48.785Z,2.97
2023-04-05T14:17:53.420Z,2.93
2023-04-05T14:22:57.276Z,3.13
2023-04-05T14:28:00.577Z,2.90
2023-04-05T14:33:05.208Z,3.17
2023-04-05T14:38:08.409Z,2.90
2023-04-05T14:43:11.619Z,3.10
2023-04-05T14:48:16.201Z,2.77
2023-04-05T14:53:19.475Z,2.70
2023-04-05T14:58:22.657Z,2.80
2023-04-05T15:03:27.559Z,2.80
2023-04-05T15:08:30.848Z,2.80
2023-04-05T15:13:34.186Z,3.10
2023-04-05T15:18:38.767Z,3.20
2023-04-05T15:23:41.980Z,3.27
2023-04-05T15:28:45.374Z,2.70
2023-04-05T15:33:49.947Z,2.80
2023-04-05T15:38:53.102Z,2.90
2023-04-05T15:43:56.274Z,3.20
2023-04-05T15:49:01.126Z,2.90
2023-04-05T15:54:04.758Z,2.50
2023-04-05T15:59:07.971Z,2.90
2023-04-05T16:04:12.721Z,3.20
2023-04-05T16:09:16.032Z,2.97
2023-04-05T16:14:20.472Z,2.90
2023-04-05T16:19:25.047Z,3.00
2023-04-05T16:24:28.339Z,2.70
2023-04-05T16:29:31.716Z,3.07
2023-04-05T16:34:36.454Z,3.00
2023-04-05T16:39:39.639Z,3.00
2023-04-05T16:44:42.838Z,2.60
2023-04-05T16:49:47.441Z,2.90
2023-04-05T16:54:50.634Z,2.80
2023-04-05T16:59:53.832Z,3.03
2023-04-05T17:04:58.430Z,3.40
2023-04-05T17:10:03.059Z,3.07
2023-04-05T17:15:07.102Z,3.10
2023-04-05T17:20:13.053Z,3.00
2023-04-05T17:25:16.257Z,2.70
2023-04-05T17:30:19.457Z,2.73
2023-04-05T17:35:24.263Z,2.37
2023-04-05T17:40:27.594Z,2.20
2023-04-05T17:45:31.212Z,2.23
2023-04-05T17:50:37.032Z,3.57
2023-04-05T17:55:40.315Z,4.07
2023-04-05T18:00:43.798Z,3.40
2023-04-05T18:05:53.580Z,3.57
2023-04-05T18:10:58.321Z,3.30
2023-04-05T18:16:01.829Z,3.50
2023-04-05T18:21:06.534Z,3.50
2023-04-05T18:26:09.755Z,4.00
2023-04-05T18:31:12.963Z,3.73
2023-04-05T18:36:17.588Z,4.70
2023-04-05T18:41:20.809Z,4.20
2023-04-05T18:46:24.889Z,3.50
2023-04-05T18:51:29.518Z,4.63
2023-04-05T18:56:32.721Z,3.57
2023-04-05T19:01:36.141Z,3.90
2023-04-05T19:06:40.726Z,3.40
2023-04-05T19:11:43.923Z,2.67
2023-04-05T19:16:47.099Z,4.10
2023-04-05T19:21:51.676Z,4.97
2023-04-05T19:26:55.218Z,5.93
2023-04-05T19:31:58.417Z,6.03
2023-04-05T19:37:03.085Z,5.00
2023-04-05T19:42:06.636Z,5.17
2023-04-05T19:47:11.333Z,5.67
2023-04-05T19:52:36.397Z,7.97
2023-04-05T19:57:41.554Z,8.30
2023-04-05T20:02:44.769Z,7.87
2023-04-05T20:07:49.393Z,8.27
2023-04-05T20:12:52.578Z,9.50
2023-04-05T20:17:56.115Z,9.67
2023-04-05T20:23:01.018Z,9.80
2023-04-05T20:28:05.722Z,7.23
2023-04-05T20:33:43.847Z,7.30
2023-04-05T20:38:49.406Z,6.57
2023-04-05T20:43:52.692Z,7.53
2023-04-05T20:48:57.388Z,6.20
2023-04-05T20:54:02.268Z,6.30
2023-04-05T20:59:05.773Z,5.83
2023-04-05T21:04:09.444Z,4.23
2023-04-05T21:09:14.012Z,4.63
2023-04-05T21:14:17.206Z,5.40
2023-04-05T21:19:20.371Z,5.17
2023-04-05T21:24:24.956Z,4.77
2023-04-05T21:29:28.106Z,4.87
2023-04-05T21:34:31.287Z,6.20
2023-04-05T21:39:35.854Z,4.47
2023-04-05T21:44:39.028Z,5.20
2023-04-05T21:49:42.597Z,4.83
2023-04-05T21:54:47.230Z,4.63
2023-04-05T21:59:50.443Z,5.00
2023-04-05T22:04:53.690Z,5.70
2023-04-05T22:09:58.478Z,7.13
2023-04-05T22:15:02.677Z,6.57
2023-04-05T22:20:06.781Z,6.87
2023-04-05T22:25:12.060Z,6.37
2023-04-05T22:30:16.187Z,5.00
2023-04-05T22:35:19.778Z,7.13
2023-04-05T22:40:27.082Z,6.20
2023-04-05T22:45:30.420Z,7.93
2023-04-05T22:50:34.045Z,5.93
2023-04-05T22:55:40.117Z,4.07
2023-04-05T23:00:43.723Z,3.90
2023-04-05T23:05:46.906Z,3.37
2023-04-05T23:10:51.471Z,3.40
2023-04-05T23:15:54.731Z,3.57
2023-04-05T23:20:57.930Z,4.67
2023-04-05T23:26:02.566Z,4.20
2023-04-05T23:31:06.005Z,4.40
2023-04-05T23:36:10.340Z,4.20
2023-04-05T23:41:15.173Z,4.53
2023-04-05T23:46:18.372Z,3.90
2023-04-05T23:51:21.690Z,3.73
2023-04-05T23:56:26.438Z,3.30
